Terminal Aerodrome Forecast
Issued by NWS

Home | Current Version | Previous Version | Text Only | Print | Product List | Glossary On
Versions: 1 2 3 4 5 6 7 8 9 10 11 12 13 14
000
FTUS45 KVEF 230539
TAFVGT
TAF
KVGT 230539Z 2306/2406 26011KT P6SM SCT100 BKN200
     FM231000 32014G23KT P6SM FEW100 BKN200
     FM231600 32020G30KT P6SM SCT060 BKN100
     FM232000 32015G25KT P6SM SCT100
     FM240200 31011KT P6SM FEW100=

USA.gov is the U.S. government's official web portal to all federal, state and local government web resources and services.